TimeCDT,TemperatureF,Dew PointF,Humidity,Sea Level PressureIn,VisibilityMPH,Wind Direction,Wind SpeedMPH,Gust SpeedMPH,PrecipitationIn,Events,Conditions,WindDirDegrees,DateUTC
12:53 AM,46.0,42.1,86,30.02,10.0,NW,3.5,-,N/A,,Clear,310,2013-10-18 05:53:00
1:53 AM,48.9,45.0,86,30.02,10.0,Calm,Calm,-,N/A,,Clear,0,2013-10-18 06:53:00
2:53 AM,45.0,41.0,86,30.03,10.0,North,9.2,-,N/A,,Clear,350,2013-10-18 07:53:00
3:53 AM,48.0,42.1,80,30.04,10.0,North,11.5,-,N/A,,Clear,360,2013-10-18 08:53:00
4:53 AM,48.0,41.0,77,30.03,10.0,North,10.4,-,N/A,,Partly Cloudy,10,2013-10-18 09:53:00
5:53 AM,44.1,39.0,82,30.06,10.0,North,6.9,-,N/A,,Partly Cloudy,350,2013-10-18 10:53:00
6:53 AM,45.0,39.9,82,30.05,10.0,North,9.2,-,N/A,,Mostly Cloudy,10,2013-10-18 11:53:00
7:53 AM,45.0,39.9,82,30.07,10.0,North,4.6,-,N/A,,Overcast,360,2013-10-18 12:53:00
8:53 AM,48.0,41.0,77,30.07,10.0,North,9.2,-,N/A,,Mostly Cloudy,10,2013-10-18 13:53:00
9:53 AM,51.1,41.0,68,30.06,10.0,NE,13.8,-,N/A,,Mostly Cloudy,40,2013-10-18 14:53:00
10:53 AM,53.1,41.0,64,30.06,10.0,North,10.4,-,N/A,,Mostly Cloudy,10,2013-10-18 15:53:00
11:53 AM,53.1,41.0,64,30.05,10.0,North,10.4,-,N/A,,Overcast,360,2013-10-18 16:53:00
12:53 PM,52.0,42.1,69,30.03,10.0,NNE,6.9,-,0.00,,Overcast,30,2013-10-18 17:53:00
1:53 PM,51.1,44.1,77,30.04,10.0,North,15.0,-,0.00,Rain,Light Rain,350,2013-10-18 18:53:00
2:53 PM,51.1,41.0,68,30.02,10.0,North,11.5,19.6,0.00,,Overcast,10,2013-10-18 19:53:00
3:22 PM,52.0,42.1,69,30.03,10.0,North,13.8,-,N/A,,Overcast,350,2013-10-18 20:22:00
3:53 PM,50.0,42.1,74,30.03,10.0,North,16.1,-,0.00,,Overcast,350,2013-10-18 20:53:00
4:48 PM,46.4,42.8,87,30.04,2.5,North,17.3,-,0.03,Rain,Heavy Rain,350,2013-10-18 21:48:00
4:53 PM,46.0,42.1,86,30.05,2.5,North,15.0,-,0.04,Rain,Rain,350,2013-10-18 21:53:00
4:56 PM,46.0,42.1,86,30.05,3.0,North,16.1,-,0.01,Rain,Rain,350,2013-10-18 21:56:00
5:05 PM,46.0,42.1,86,30.06,3.0,North,13.8,-,0.03,Rain,Light Rain,350,2013-10-18 22:05:00
5:21 PM,46.0,44.1,93,30.06,3.0,North,16.1,-,0.04,Rain,Rain,360,2013-10-18 22:21:00
5:24 PM,46.0,44.1,93,30.06,3.0,North,17.3,-,0.05,Rain,Rain,360,2013-10-18 22:24:00
5:30 PM,46.0,44.1,93,30.06,3.0,North,12.7,-,0.05,Rain,Light Rain,350,2013-10-18 22:30:00
5:35 PM,46.0,42.1,86,30.06,4.0,North,12.7,-,0.05,Rain,Light Rain,350,2013-10-18 22:35:00
5:50 PM,46.4,42.8,87,30.07,2.5,North,12.7,-,0.06,Rain,Rain,350,2013-10-18 22:50:00
5:53 PM,46.0,42.1,86,30.08,2.5,NNW,12.7,-,0.07,Rain,Rain,340,2013-10-18 22:53:00
6:36 PM,44.1,42.1,93,30.08,4.0,North,15.0,-,0.04,Rain,Light Rain,350,2013-10-18 23:36:00
6:53 PM,44.1,42.1,93,30.09,7.0,North,13.8,-,0.05,Rain,Light Rain,360,2013-10-18 23:53:00
7:53 PM,43.0,41.0,93,30.12,7.0,North,11.5,-,0.00,Rain,Light Rain,350,2013-10-19 00:53:00
8:53 PM,42.1,39.9,92,30.13,7.0,NNW,11.5,-,0.03,Rain,Light Rain,340,2013-10-19 01:53:00
9:50 PM,41.0,39.2,93,30.15,10.0,NNW,12.7,-,0.00,,Overcast,340,2013-10-19 02:50:00
9:53 PM,41.0,37.9,89,30.16,10.0,NNW,11.5,-,0.00,,Overcast,340,2013-10-19 02:53:00
10:09 PM,41.0,37.9,89,30.16,10.0,NNW,9.2,-,N/A,,Overcast,330,2013-10-19 03:09:00
10:25 PM,41.0,37.9,89,30.16,10.0,NNW,9.2,-,N/A,,Overcast,330,2013-10-19 03:25:00
10:53 PM,41.0,37.0,86,30.17,10.0,NNW,13.8,-,N/A,,Overcast,330,2013-10-19 03:53:00
11:53 PM,39.9,37.9,93,30.17,10.0,NW,6.9,-,N/A,,Overcast,320,2013-10-19 04:53:00